createdAt,value
2017-12-30T00:00:59.548Z,93.4
2017-12-30T00:02:00.928Z,93.4
2017-12-30T00:03:02.311Z,94.4
2017-12-30T00:04:03.691Z,94.3
2017-12-30T00:05:05.072Z,94.1
2017-12-30T00:06:06.454Z,94.3
2017-12-30T00:07:07.837Z,94.2
2017-12-30T00:08:09.220Z,94.2
2017-12-30T00:09:10.614Z,94.5
2017-12-30T00:10:11.993Z,94.8
2017-12-30T00:11:13.375Z,94.8
2017-12-30T00:12:14.754Z,94.9
2017-12-30T00:13:16.134Z,94.7
2017-12-30T00:14:17.516Z,94.9
2017-12-30T00:15:18.898Z,94.4
2017-12-30T00:16:20.281Z,94.6
2017-12-30T00:17:21.665Z,94.5
2017-12-30T00:18:23.045Z,94.4
2017-12-30T00:19:24.421Z,94.6
2017-12-30T00:20:25.799Z,94.6
2017-12-30T00:21:27.179Z,94.6
2017-12-30T00:22:28.565Z,94.2
2017-12-30T00:23:29.941Z,94.7
2017-12-30T00:24:31.324Z,94.1
2017-12-30T00:25:32.706Z,94.1
2017-12-30T00:26:34.085Z,93.9
2017-12-30T00:27:35.466Z,94.6
2017-12-30T00:28:36.845Z,93.9
2017-12-30T00:29:38.346Z,93.9
2017-12-30T00:30:39.717Z,94.3
2017-12-30T00:31:41.109Z,94.3
2017-12-30T00:32:42.484Z,94.2
2017-12-30T00:33:43.861Z,94.1
2017-12-30T00:34:45.241Z,94.1
2017-12-30T00:35:46.619Z,93.8
2017-12-30T00:36:48.004Z,93.5
2017-12-30T00:37:49.383Z,93.6
2017-12-30T00:38:50.766Z,93.9
2017-12-30T00:39:52.146Z,94.2
2017-12-30T00:40:53.543Z,94.1
2017-12-30T00:41:54.904Z,94.2
2017-12-30T00:42:56.289Z,94.2
2017-12-30T00:43:57.673Z,94.2
2017-12-30T00:44:59.085Z,94.6
2017-12-30T00:46:00.473Z,94.3
2017-12-30T00:47:01.849Z,94.2
2017-12-30T00:48:03.230Z,94.1
2017-12-30T00:49:04.611Z,94.4
2017-12-30T00:50:05.992Z,94.1
2017-12-30T00:51:07.374Z,94.2
2017-12-30T00:52:08.760Z,94.3
2017-12-30T00:53:10.142Z,94.3
2017-12-30T00:54:11.522Z,94.4
2017-12-30T00:55:12.900Z,94.1
2017-12-30T00:56:14.281Z,94.5
2017-12-30T00:57:15.661Z,94.0
2017-12-30T00:58:17.046Z,93.8
2017-12-30T00:59:18.425Z,93.9
2017-12-30T01:00:19.809Z,93.5
2017-12-30T01:01:21.187Z,93.6
2017-12-30T01:02:22.570Z,93.5
2017-12-30T01:03:23.950Z,93.9
2017-12-30T01:04:25.333Z,93.5
2017-12-30T01:05:26.710Z,93.3
2017-12-30T01:06:28.092Z,93.2
2017-12-30T01:07:29.477Z,92.5
2017-12-30T01:08:30.855Z,93.0
2017-12-30T01:09:32.234Z,92.6
2017-12-30T01:10:33.613Z,92.7
2017-12-30T01:11:34.993Z,92.9
2017-12-30T01:12:36.376Z,93.1
2017-12-30T01:13:37.757Z,92.8
2017-12-30T01:14:39.142Z,92.8
2017-12-30T01:15:40.519Z,92.1
2017-12-30T01:16:41.900Z,92.8
2017-12-30T01:17:43.279Z,92.8
2017-12-30T01:18:44.656Z,92.0
2017-12-30T01:19:46.040Z,92.5
2017-12-30T01:20:47.421Z,92.6
2017-12-30T01:21:48.809Z,91.8
2017-12-30T01:22:50.184Z,92.3
2017-12-30T01:23:51.563Z,91.6
2017-12-30T01:24:52.942Z,91.5
2017-12-30T01:25:54.326Z,92.2
2017-12-30T01:26:55.705Z,91.3
2017-12-30T01:27:57.086Z,91.9
2017-12-30T01:28:58.468Z,91.8
2017-12-30T01:29:59.845Z,92.1
2017-12-30T01:31:01.228Z,92.1
2017-12-30T01:32:02.608Z,91.9
2017-12-30T01:33:03.989Z,92.0
2017-12-30T01:34:05.371Z,91.9
2017-12-30T01:35:06.752Z,92.2
2017-12-30T01:36:08.135Z,91.9
2017-12-30T01:37:09.528Z,91.8
2017-12-30T01:38:10.936Z,92.0
2017-12-30T01:39:12.327Z,92.1
2017-12-30T01:40:13.710Z,91.9
2017-12-30T01:41:15.092Z,91.8
2017-12-30T01:42:16.475Z,91.4
2017-12-30T01:43:17.856Z,91.8
2017-12-30T01:44:19.237Z,92.0
2017-12-30T01:45:20.618Z,92.6
2017-12-30T01:46:22.001Z,92.8
2017-12-30T01:47:23.381Z,92.6
2017-12-30T01:48:24.763Z,92.3
2017-12-30T01:49:26.144Z,91.9
2017-12-30T01:50:27.528Z,92.8
2017-12-30T01:51:28.908Z,92.7
2017-12-30T01:52:30.287Z,92.2
2017-12-30T01:53:31.669Z,92.4
2017-12-30T01:54:33.051Z,92.9
2017-12-30T01:55:34.431Z,92.9
2017-12-30T01:56:35.814Z,92.4
2017-12-30T01:57:37.201Z,91.9
2017-12-30T01:58:38.582Z,92.4
2017-12-30T01:59:39.960Z,92.2
2017-12-30T02:00:41.338Z,92.8
2017-12-30T02:01:42.719Z,92.8
2017-12-30T02:02:44.115Z,92.8
2017-12-30T02:03:45.495Z,92.2
2017-12-30T02:04:46.877Z,92.4
2017-12-30T02:05:48.256Z,92.6
2017-12-30T02:06:49.635Z,92.0
2017-12-30T02:07:51.016Z,91.8
2017-12-30T02:08:52.391Z,91.4
2017-12-30T02:09:53.777Z,91.6
2017-12-30T02:10:55.159Z,92.0
2017-12-30T02:11:56.541Z,91.9
2017-12-30T02:12:57.922Z,91.9
2017-12-30T02:13:59.300Z,91.9
2017-12-30T02:15:00.681Z,91.5
2017-12-30T02:16:02.061Z,92.1
2017-12-30T02:17:03.442Z,91.5
2017-12-30T02:18:04.828Z,91.7
2017-12-30T02:19:06.213Z,92.0
2017-12-30T02:20:07.592Z,91.4
2017-12-30T02:21:08.971Z,91.8
2017-12-30T02:22:10.349Z,91.8
2017-12-30T02:23:11.729Z,91.8
2017-12-30T02:24:13.111Z,91.8
2017-12-30T02:25:14.494Z,92.0
2017-12-30T02:26:15.878Z,91.9
2017-12-30T02:27:17.256Z,91.9
2017-12-30T02:28:18.634Z,92.0
2017-12-30T02:29:20.015Z,91.8
2017-12-30T02:30:21.422Z,91.9
2017-12-30T02:31:22.847Z,91.9
2017-12-30T02:32:24.234Z,92.0
2017-12-30T02:33:25.618Z,91.5
2017-12-30T02:34:26.996Z,91.5
2017-12-30T02:35:28.374Z,91.5
2017-12-30T02:36:29.755Z,91.6
2017-12-30T02:37:31.135Z,91.6
2017-12-30T02:38:32.524Z,91.4
2017-12-30T02:39:33.905Z,91.5
2017-12-30T02:40:35.287Z,91.6
2017-12-30T02:41:36.669Z,91.5
2017-12-30T02:42:38.053Z,91.5
2017-12-30T02:43:39.433Z,91.5
2017-12-30T02:44:40.814Z,91.1
2017-12-30T02:45:42.196Z,91.1
2017-12-30T02:46:43.575Z,90.9
2017-12-30T02:47:44.958Z,91.0
2017-12-30T02:48:46.337Z,91.2
2017-12-30T02:49:47.719Z,90.9
2017-12-30T02:50:49.102Z,90.6
2017-12-30T02:51:50.480Z,90.8
2017-12-30T02:52:51.869Z,91.2
2017-12-30T02:53:53.246Z,90.6
2017-12-30T02:54:54.629Z,90.8
2017-12-30T02:55:56.013Z,90.9
2017-12-30T02:56:57.392Z,90.7
2017-12-30T02:57:58.774Z,90.5
2017-12-30T02:59:00.155Z,90.7
2017-12-30T03:00:01.538Z,90.8
2017-12-30T03:01:02.919Z,90.3
2017-12-30T03:02:04.302Z,90.9
2017-12-30T03:03:05.682Z,90.6
2017-12-30T03:04:07.061Z,89.9
2017-12-30T03:05:08.441Z,89.8
2017-12-30T03:06:09.822Z,90.0
2017-12-30T03:07:11.203Z,90.0
2017-12-30T03:08:12.589Z,90.2
2017-12-30T03:09:13.970Z,90.2
2017-12-30T03:10:15.352Z,90.3
2017-12-30T03:11:16.730Z,90.0
2017-12-30T03:12:18.110Z,89.8
2017-12-30T03:13:19.493Z,89.9
2017-12-30T03:14:20.871Z,90.0
2017-12-30T03:15:22.250Z,89.8
2017-12-30T03:16:23.634Z,90.1
2017-12-30T03:17:25.015Z,90.1
2017-12-30T03:18:26.398Z,89.9
2017-12-30T03:19:27.779Z,89.9
2017-12-30T03:20:29.158Z,90.9
2017-12-30T03:21:30.541Z,90.5
2017-12-30T03:22:31.922Z,90.7
2017-12-30T03:23:33.303Z,90.6
2017-12-30T03:24:34.757Z,90.8
2017-12-30T03:25:36.153Z,90.5
2017-12-30T03:26:37.533Z,90.4
2017-12-30T03:27:38.914Z,90.9
2017-12-30T03:28:40.294Z,91.2
2017-12-30T03:29:41.675Z,91.2
2017-12-30T03:30:43.065Z,91.0
2017-12-30T03:31:44.441Z,91.2
2017-12-30T03:32:45.821Z,91.3
2017-12-30T03:33:47.205Z,92.1
2017-12-30T03:34:48.587Z,91.9
2017-12-30T03:35:49.970Z,92.0
2017-12-30T03:36:51.355Z,92.2
2017-12-30T03:37:52.737Z,92.0
2017-12-30T03:38:54.119Z,92.2
2017-12-30T03:39:55.499Z,92.4
2017-12-30T03:40:56.877Z,92.8
2017-12-30T03:41:58.256Z,93.2
2017-12-30T03:42:59.639Z,92.9
2017-12-30T03:44:01.022Z,93.3
2017-12-30T03:45:02.412Z,93.3
2017-12-30T03:46:03.784Z,93.4
2017-12-30T03:47:05.162Z,94.0
2017-12-30T03:48:06.540Z,94.3
2017-12-30T03:49:07.921Z,94.4
2017-12-30T03:50:09.305Z,94.5
2017-12-30T03:51:10.686Z,94.1
2017-12-30T03:52:12.067Z,94.2
2017-12-30T03:53:13.451Z,94.8
2017-12-30T03:54:14.829Z,94.6
2017-12-30T03:55:16.209Z,94.6
2017-12-30T03:56:17.590Z,94.6
2017-12-30T03:57:18.971Z,94.6
2017-12-30T03:58:20.354Z,94.6
2017-12-30T03:59:21.737Z,94.3
2017-12-30T04:00:23.120Z,94.6
2017-12-30T04:01:24.593Z,94.5
2017-12-30T04:02:25.978Z,94.5
2017-12-30T04:03:27.355Z,94.7
2017-12-30T04:04:28.739Z,94.3
2017-12-30T04:05:30.119Z,93.9
2017-12-30T04:06:31.500Z,94.6
2017-12-30T04:07:32.881Z,94.6
2017-12-30T04:08:34.265Z,94.6
2017-12-30T04:09:35.642Z,94.6
2017-12-30T04:10:37.023Z,94.2
2017-12-30T04:11:38.405Z,93.9
2017-12-30T04:12:39.792Z,94.5
2017-12-30T04:13:41.174Z,94.6
2017-12-30T04:14:42.557Z,94.5
2017-12-30T04:15:43.934Z,94.6
2017-12-30T04:16:45.315Z,94.5
2017-12-30T04:17:46.778Z,94.7
2017-12-30T04:18:48.171Z,94.6
2017-12-30T04:19:49.552Z,94.6
2017-12-30T04:20:50.936Z,94.8
2017-12-30T04:21:52.314Z,94.6
2017-12-30T04:22:53.692Z,94.6
2017-12-30T04:23:55.074Z,94.9
2017-12-30T04:24:56.455Z,94.8
2017-12-30T04:25:57.835Z,94.4
2017-12-30T04:26:59.216Z,94.4
2017-12-30T04:28:00.600Z,94.6
2017-12-30T04:29:01.980Z,94.6
2017-12-30T04:30:03.359Z,94.7
2017-12-30T04:31:04.741Z,94.6
2017-12-30T04:32:06.121Z,94.7
2017-12-30T04:33:07.500Z,94.6
2017-12-30T04:34:08.884Z,94.9
2017-12-30T04:35:10.270Z,94.3
2017-12-30T04:36:11.648Z,94.8
2017-12-30T04:37:13.029Z,94.6
2017-12-30T04:38:14.407Z,95.2
2017-12-30T04:39:15.786Z,95.3
2017-12-30T04:40:17.170Z,95.1
2017-12-30T04:41:18.552Z,95.1
2017-12-30T04:42:19.934Z,95.2
2017-12-30T04:43:21.312Z,94.9
2017-12-30T04:44:22.694Z,95.2
2017-12-30T04:45:24.077Z,95.2
2017-12-30T04:46:25.457Z,95.5
2017-12-30T04:47:26.837Z,94.8
2017-12-30T04:48:28.219Z,95.0
2017-12-30T04:49:29.606Z,95.3
2017-12-30T04:50:30.990Z,95.2
2017-12-30T04:51:32.371Z,95.0
2017-12-30T04:52:33.749Z,94.9
2017-12-30T04:53:35.132Z,95.1
2017-12-30T04:54:36.514Z,95.1
2017-12-30T04:55:37.896Z,95.1
2017-12-30T04:56:39.278Z,95.2
2017-12-30T04:57:40.659Z,95.1
2017-12-30T04:58:42.039Z,95.4
2017-12-30T04:59:43.421Z,95.4
2017-12-30T05:00:44.805Z,95.2
2017-12-30T05:01:46.191Z,95.4
2017-12-30T05:02:47.570Z,94.3
2017-12-30T05:03:48.950Z,95.3
2017-12-30T05:04:50.329Z,95.3
2017-12-30T05:05:51.710Z,94.8
2017-12-30T05:06:53.092Z,94.7
2017-12-30T05:07:54.471Z,95.0
2017-12-30T05:08:55.853Z,94.7
2017-12-30T05:09:57.237Z,94.8
2017-12-30T05:10:58.637Z,94.7
2017-12-30T05:12:00.026Z,94.6
2017-12-30T05:13:01.396Z,94.6
2017-12-30T05:14:02.778Z,95.2
2017-12-30T05:15:04.161Z,95.0
2017-12-30T05:16:05.542Z,95.6
2017-12-30T05:17:06.924Z,95.5
2017-12-30T05:18:08.309Z,95.5
2017-12-30T05:19:09.688Z,96.1
2017-12-30T05:20:11.069Z,95.3
2017-12-30T05:21:12.452Z,95.7
2017-12-30T05:22:13.835Z,96.4
2017-12-30T05:23:15.217Z,96.3
2017-12-30T05:24:16.599Z,95.9
2017-12-30T05:25:17.980Z,96.3
2017-12-30T05:26:19.362Z,96.3
2017-12-30T05:27:20.742Z,96.5
2017-12-30T05:28:22.123Z,97.1
2017-12-30T05:29:23.505Z,97.3
2017-12-30T05:30:24.886Z,97.6
2017-12-30T05:31:26.270Z,97.4
2017-12-30T05:32:27.652Z,96.7
2017-12-30T05:33:29.032Z,96.7
2017-12-30T05:34:30.411Z,97.4
2017-12-30T05:35:31.793Z,96.7
2017-12-30T05:36:33.183Z,97.3
2017-12-30T05:37:34.558Z,97.2
2017-12-30T05:38:35.943Z,97.3
2017-12-30T05:39:37.327Z,97.5
2017-12-30T05:40:38.705Z,97.1
2017-12-30T05:41:40.089Z,97.1
2017-12-30T05:42:41.473Z,97.4
2017-12-30T05:43:42.853Z,97.0
2017-12-30T05:44:44.233Z,97.4
2017-12-30T05:45:45.615Z,97.3
2017-12-30T05:46:47.000Z,97.4
2017-12-30T05:47:48.381Z,97.2
2017-12-30T05:48:49.762Z,96.9
2017-12-30T05:49:51.142Z,97.3
2017-12-30T05:50:52.525Z,97.0
2017-12-30T05:51:53.909Z,97.4
2017-12-30T05:52:55.290Z,97.6
2017-12-30T05:53:56.674Z,97.5
2017-12-30T05:54:58.058Z,96.9
2017-12-30T05:55:59.440Z,97.0
2017-12-30T05:57:00.820Z,97.0
2017-12-30T05:58:02.202Z,96.9
2017-12-30T05:59:03.585Z,96.8
2017-12-30T06:00:04.966Z,97.2
2017-12-30T06:01:06.351Z,97.0
2017-12-30T06:02:07.731Z,97.2
2017-12-30T06:03:09.113Z,97.1
2017-12-30T06:04:10.517Z,97.6
2017-12-30T06:05:11.920Z,97.5
2017-12-30T06:06:13.301Z,97.2
2017-12-30T06:07:14.686Z,97.4
2017-12-30T06:08:16.072Z,97.7
2017-12-30T06:09:17.450Z,97.8
2017-12-30T06:10:18.834Z,98.0
2017-12-30T06:11:20.215Z,97.9
2017-12-30T06:12:21.599Z,98.2
2017-12-30T06:13:22.980Z,98.0
2017-12-30T06:14:24.362Z,98.1
2017-12-30T06:15:25.748Z,97.9
2017-12-30T06:16:27.124Z,97.5
2017-12-30T06:17:28.505Z,97.5
2017-12-30T06:18:29.888Z,97.3
2017-12-30T06:19:31.273Z,97.7
2017-12-30T06:20:32.652Z,97.6
2017-12-30T06:21:34.035Z,98.1
2017-12-30T06:22:35.416Z,98.2
2017-12-30T06:23:36.797Z,97.6
2017-12-30T06:24:38.177Z,97.1
2017-12-30T06:25:39.561Z,97.0
2017-12-30T06:26:40.941Z,96.9
2017-12-30T06:27:42.324Z,97.5
2017-12-30T06:28:43.706Z,97.8
2017-12-30T06:29:45.091Z,97.7
2017-12-30T06:30:46.467Z,98.1
2017-12-30T06:31:47.852Z,97.9
2017-12-30T06:32:49.234Z,98.2
2017-12-30T06:33:50.614Z,98.2
2017-12-30T06:34:51.997Z,98.2
2017-12-30T06:35:53.380Z,98.1
2017-12-30T06:36:54.764Z,97.8
2017-12-30T06:37:56.143Z,97.7
2017-12-30T06:38:57.524Z,98.0
2017-12-30T06:39:58.904Z,98.3
2017-12-30T06:41:00.287Z,98.1
2017-12-30T06:42:01.668Z,97.9
2017-12-30T06:43:03.052Z,98.4
2017-12-30T06:44:04.436Z,98.9
2017-12-30T06:45:05.816Z,98.9
2017-12-30T06:46:07.198Z,98.9
2017-12-30T06:47:08.581Z,98.7
2017-12-30T06:48:09.962Z,98.5
2017-12-30T06:49:11.345Z,98.7
2017-12-30T06:50:12.727Z,98.8
2017-12-30T06:51:14.111Z,98.6
2017-12-30T06:52:15.491Z,98.6
2017-12-30T06:53:16.872Z,99.0
2017-12-30T06:54:18.251Z,98.8
2017-12-30T06:55:19.631Z,98.7
2017-12-30T06:56:21.011Z,98.8
2017-12-30T06:57:22.428Z,98.6
2017-12-30T06:58:23.850Z,98.9
2017-12-30T06:59:25.230Z,99.0
2017-12-30T07:00:26.609Z,98.9
2017-12-30T07:01:27.990Z,98.8
2017-12-30T07:02:29.371Z,99.3
2017-12-30T07:03:30.754Z,99.3
2017-12-30T07:04:32.136Z,99.1
2017-12-30T07:05:33.520Z,98.9
2017-12-30T07:06:34.901Z,98.6
2017-12-30T07:07:36.280Z,98.6
2017-12-30T07:08:37.663Z,98.8
2017-12-30T07:09:39.048Z,98.8
2017-12-30T07:10:40.432Z,98.8
2017-12-30T07:11:41.815Z,99.1
2017-12-30T07:12:43.199Z,99.3
2017-12-30T07:13:44.578Z,99.3
2017-12-30T07:14:45.959Z,99.0
2017-12-30T07:15:47.341Z,99.3
2017-12-30T07:16:48.725Z,99.7
2017-12-30T07:17:50.105Z,99.6
2017-12-30T07:18:51.489Z,99.6
2017-12-30T07:19:52.872Z,99.4
2017-12-30T07:20:54.252Z,99.4
2017-12-30T07:21:55.632Z,99.9
2017-12-30T07:22:57.015Z,99.5
2017-12-30T07:23:58.430Z,99.9
2017-12-30T07:24:59.775Z,99.9
2017-12-30T07:26:01.157Z,99.4
2017-12-30T07:27:02.540Z,99.3
2017-12-30T07:28:03.921Z,99.8
2017-12-30T07:29:05.303Z,99.8
2017-12-30T07:30:06.683Z,100.0
2017-12-30T07:31:08.065Z,99.6
2017-12-30T07:32:09.452Z,99.4
2017-12-30T07:33:10.831Z,99.8
2017-12-30T07:34:12.219Z,99.9
2017-12-30T07:35:13.601Z,100.0
2017-12-30T07:36:14.981Z,99.8
2017-12-30T07:37:16.364Z,100.0
2017-12-30T07:38:17.749Z,100.0
2017-12-30T07:39:19.134Z,99.9
2017-12-30T07:40:20.513Z,99.8
2017-12-30T07:41:21.898Z,99.3
2017-12-30T07:42:23.310Z,99.5
2017-12-30T07:43:24.692Z,99.6
2017-12-30T07:44:26.073Z,99.5
2017-12-30T07:45:27.455Z,99.6
2017-12-30T07:46:28.846Z,99.2
2017-12-30T07:47:30.226Z,99.3
2017-12-30T07:48:31.610Z,99.2
2017-12-30T07:49:32.991Z,99.2
2017-12-30T07:50:34.452Z,99.0
2017-12-30T07:51:35.864Z,99.0
2017-12-30T07:52:37.246Z,99.6
2017-12-30T07:53:38.631Z,99.7
2017-12-30T07:54:40.017Z,99.5
2017-12-30T07:55:41.401Z,99.5
2017-12-30T07:56:42.785Z,99.4
2017-12-30T07:57:44.165Z,99.6
2017-12-30T07:58:45.549Z,99.7
2017-12-30T07:59:46.930Z,99.3
2017-12-30T08:00:48.312Z,99.9
2017-12-30T08:01:49.701Z,100.0
2017-12-30T08:02:51.086Z,99.7
2017-12-30T08:03:52.518Z,100.0
2017-12-30T08:04:53.853Z,100.0
2017-12-30T08:05:55.238Z,99.9
2017-12-30T08:06:56.627Z,99.8
2017-12-30T08:07:58.007Z,100.0
2017-12-30T08:08:59.391Z,100.0
2017-12-30T08:10:00.778Z,100.0
2017-12-30T08:11:02.163Z,100.0
2017-12-30T08:12:03.544Z,100.0
2017-12-30T08:13:04.928Z,100.0
2017-12-30T08:14:06.314Z,100.0
2017-12-30T08:15:07.699Z,100.0
2017-12-30T08:16:09.083Z,100.0
2017-12-30T08:17:10.473Z,100.0
2017-12-30T08:18:11.855Z,100.0
2017-12-30T08:19:13.240Z,100.0
2017-12-30T08:20:14.626Z,100.0
2017-12-30T08:21:16.011Z,100.0
2017-12-30T08:22:17.397Z,100.0
2017-12-30T08:23:18.781Z,100.0
2017-12-30T08:24:20.171Z,100.0
2017-12-30T08:25:21.553Z,100.0
2017-12-30T08:26:22.937Z,100.0
2017-12-30T08:27:24.323Z,100.0
2017-12-30T08:28:25.708Z,100.0
2017-12-30T08:29:27.094Z,100.0
2017-12-30T08:30:28.481Z,100.0
2017-12-30T08:31:29.867Z,100.0
2017-12-30T08:32:31.250Z,100.0
2017-12-30T08:33:32.636Z,100.0
2017-12-30T08:34:34.025Z,100.0
2017-12-30T08:35:35.406Z,100.0
2017-12-30T08:36:36.797Z,100.0
2017-12-30T08:37:38.179Z,100.0
2017-12-30T08:38:39.566Z,100.0
2017-12-30T08:39:40.949Z,100.0
2017-12-30T08:40:42.333Z,100.0
2017-12-30T08:41:43.719Z,100.0
2017-12-30T08:42:45.131Z,99.9
2017-12-30T08:43:46.544Z,99.8
2017-12-30T08:44:47.932Z,99.6
2017-12-30T08:45:49.323Z,99.0
2017-12-30T08:46:50.711Z,99.1
2017-12-30T08:47:52.087Z,99.2
2017-12-30T08:48:53.470Z,98.9
2017-12-30T08:49:54.855Z,98.9
2017-12-30T08:50:56.242Z,99.2
2017-12-30T08:51:57.626Z,98.9
2017-12-30T08:52:59.010Z,99.3
2017-12-30T08:54:00.393Z,99.6
2017-12-30T08:55:01.778Z,99.7
2017-12-30T08:56:03.160Z,99.7
2017-12-30T08:57:04.544Z,99.3
2017-12-30T08:58:05.934Z,99.6
2017-12-30T08:59:07.320Z,99.9
2017-12-30T09:00:08.706Z,99.7
2017-12-30T09:01:10.090Z,99.9
2017-12-30T09:02:11.474Z,99.1
2017-12-30T09:03:12.860Z,99.6
2017-12-30T09:04:14.248Z,100.0
2017-12-30T09:05:15.633Z,100.0
2017-12-30T09:06:17.021Z,100.0
2017-12-30T09:07:18.410Z,100.0
2017-12-30T09:08:19.798Z,100.0
2017-12-30T09:09:21.182Z,100.0
2017-12-30T09:10:22.568Z,100.0
2017-12-30T09:11:23.956Z,100.0
2017-12-30T09:12:25.340Z,100.0
2017-12-30T09:13:26.727Z,100.0
2017-12-30T09:14:28.117Z,100.0
2017-12-30T09:15:29.503Z,100.0
2017-12-30T09:16:30.888Z,100.0
2017-12-30T09:17:32.275Z,100.0
2017-12-30T09:18:33.660Z,100.0
2017-12-30T09:19:35.046Z,100.0
2017-12-30T09:20:36.442Z,100.0
2017-12-30T09:21:37.824Z,100.0
2017-12-30T09:22:39.209Z,100.0
2017-12-30T09:23:40.595Z,100.0
2017-12-30T09:24:41.983Z,100.0
2017-12-30T09:25:43.370Z,100.0
2017-12-30T09:26:44.758Z,100.0
2017-12-30T09:27:46.146Z,100.0
2017-12-30T09:28:47.537Z,100.0
2017-12-30T09:29:48.924Z,100.0
2017-12-30T09:30:50.308Z,100.0
2017-12-30T09:31:51.696Z,100.0
2017-12-30T09:32:53.089Z,100.0
2017-12-30T09:33:54.478Z,100.0
2017-12-30T09:34:55.863Z,100.0
2017-12-30T09:35:57.316Z,100.0
2017-12-30T09:36:58.711Z,100.0
2017-12-30T09:38:00.098Z,100.0
2017-12-30T09:39:01.486Z,100.0
2017-12-30T09:40:02.875Z,100.0
2017-12-30T09:41:04.261Z,100.0
2017-12-30T09:42:05.651Z,100.0
2017-12-30T09:43:07.050Z,100.0
2017-12-30T09:44:08.422Z,100.0
2017-12-30T09:45:09.811Z,100.0
2017-12-30T09:46:11.196Z,100.0
2017-12-30T09:47:12.587Z,100.0
2017-12-30T09:48:13.975Z,100.0
2017-12-30T09:49:15.362Z,100.0
2017-12-30T09:50:16.750Z,100.0
2017-12-30T09:51:18.137Z,100.0
2017-12-30T09:52:19.524Z,100.0
2017-12-30T09:53:20.911Z,100.0
2017-12-30T09:54:22.296Z,100.0
2017-12-30T09:55:23.687Z,100.0
2017-12-30T09:56:25.078Z,100.0
2017-12-30T09:57:26.470Z,100.0
2017-12-30T09:58:27.858Z,100.0
2017-12-30T09:59:29.249Z,100.0
2017-12-30T10:00:30.634Z,100.0
2017-12-30T10:01:32.022Z,100.0
2017-12-30T10:02:33.419Z,100.0
2017-12-30T10:03:34.806Z,100.0
2017-12-30T10:04:36.196Z,100.0
2017-12-30T10:05:37.586Z,100.0
2017-12-30T10:06:38.976Z,100.0
2017-12-30T10:07:40.364Z,100.0
2017-12-30T10:08:41.757Z,100.0
2017-12-30T10:09:43.145Z,100.0
2017-12-30T10:10:44.541Z,100.0
2017-12-30T10:11:45.928Z,100.0
2017-12-30T10:12:47.317Z,100.0
2017-12-30T10:13:48.718Z,100.0
2017-12-30T10:14:50.109Z,100.0
2017-12-30T10:15:51.498Z,100.0
2017-12-30T10:16:52.889Z,100.0
2017-12-30T10:17:54.277Z,100.0
2017-12-30T10:18:55.669Z,100.0
2017-12-30T10:19:57.058Z,100.0
2017-12-30T10:20:58.448Z,100.0
2017-12-30T10:21:59.839Z,100.0
2017-12-30T10:23:01.227Z,100.0
2017-12-30T10:24:02.618Z,100.0
2017-12-30T10:25:04.006Z,100.0
2017-12-30T10:26:05.398Z,100.0
2017-12-30T10:27:06.791Z,100.0
2017-12-30T10:28:08.191Z,100.0
2017-12-30T10:29:09.582Z,100.0
2017-12-30T10:30:10.972Z,100.0
2017-12-30T10:31:12.360Z,100.0
2017-12-30T10:32:13.759Z,100.0
2017-12-30T10:33:15.143Z,100.0
2017-12-30T10:34:16.530Z,100.0
2017-12-30T10:35:17.922Z,100.0
2017-12-30T10:36:19.312Z,100.0
2017-12-30T10:37:20.703Z,100.0
2017-12-30T10:38:22.092Z,100.0
2017-12-30T10:39:23.482Z,100.0
2017-12-30T10:40:24.871Z,100.0
2017-12-30T10:41:26.264Z,100.0
2017-12-30T10:42:27.649Z,100.0
2017-12-30T10:43:29.040Z,100.0
2017-12-30T10:44:30.428Z,100.0
2017-12-30T10:45:31.818Z,100.0
2017-12-30T10:46:33.207Z,100.0
2017-12-30T10:47:34.602Z,100.0
2017-12-30T10:48:35.992Z,100.0
2017-12-30T10:49:37.382Z,100.0
2017-12-30T10:50:38.769Z,100.0
2017-12-30T10:51:40.159Z,100.0
2017-12-30T10:52:41.550Z,100.0
2017-12-30T10:53:42.940Z,100.0
2017-12-30T10:54:44.335Z,100.0
2017-12-30T10:55:45.725Z,100.0
2017-12-30T10:56:47.114Z,100.0
2017-12-30T10:57:48.579Z,99.8
2017-12-30T10:58:49.971Z,100.0
2017-12-30T10:59:51.361Z,99.9
2017-12-30T11:00:52.752Z,99.7
2017-12-30T11:01:54.147Z,100.0
2017-12-30T11:02:55.538Z,100.0
2017-12-30T11:03:56.924Z,99.5
2017-12-30T11:04:58.313Z,99.1
2017-12-30T11:05:59.699Z,99.3
2017-12-30T11:07:01.090Z,99.0
2017-12-30T11:08:02.484Z,99.3
2017-12-30T11:09:03.878Z,99.1
2017-12-30T11:10:05.264Z,99.1
2017-12-30T11:11:06.651Z,99.3
2017-12-30T11:12:08.040Z,98.5
2017-12-30T11:13:09.429Z,98.6
2017-12-30T11:14:10.821Z,98.6
2017-12-30T11:15:12.213Z,98.1
2017-12-30T11:16:13.604Z,98.4
2017-12-30T11:17:14.995Z,98.6
2017-12-30T11:18:16.385Z,98.4
2017-12-30T11:19:17.773Z,98.5
2017-12-30T11:20:19.179Z,98.5
2017-12-30T11:21:20.575Z,98.5
2017-12-30T11:22:21.967Z,98.6
2017-12-30T11:23:23.360Z,98.5
2017-12-30T11:24:24.750Z,98.3
2017-12-30T11:25:26.137Z,98.5
2017-12-30T11:26:27.528Z,98.5
2017-12-30T11:27:28.917Z,98.8
2017-12-30T11:28:30.308Z,98.8
2017-12-30T11:29:31.700Z,98.4
2017-12-30T11:30:33.095Z,98.7
2017-12-30T11:31:34.483Z,98.6
2017-12-30T11:32:35.872Z,98.5
2017-12-30T11:33:37.263Z,98.0
2017-12-30T11:34:38.653Z,98.5
2017-12-30T11:35:40.044Z,98.2
2017-12-30T11:36:41.435Z,98.6
2017-12-30T11:37:42.831Z,97.9
2017-12-30T11:38:44.238Z,97.8
2017-12-30T11:39:45.708Z,98.1
2017-12-30T11:40:47.105Z,97.8
2017-12-30T11:41:48.498Z,98.2
2017-12-30T11:42:49.886Z,98.1
2017-12-30T11:43:51.279Z,98.7
2017-12-30T11:44:52.672Z,97.8
2017-12-30T11:45:54.063Z,97.9
2017-12-30T11:46:55.453Z,97.0
2017-12-30T11:47:56.841Z,97.3
2017-12-30T11:48:58.234Z,96.7
2017-12-30T11:49:59.623Z,96.7
2017-12-30T11:51:01.015Z,96.7
2017-12-30T11:52:02.408Z,96.5
2017-12-30T11:53:03.809Z,96.3
2017-12-30T11:54:05.201Z,97.0
2017-12-30T11:55:06.587Z,96.3
2017-12-30T11:56:07.978Z,96.1
2017-12-30T11:57:09.370Z,95.9
2017-12-30T11:58:10.763Z,95.6
2017-12-30T11:59:12.155Z,95.6
2017-12-30T12:00:13.546Z,96.2
2017-12-30T12:01:14.933Z,96.6
2017-12-30T12:02:16.325Z,96.2
2017-12-30T12:03:17.725Z,95.8
2017-12-30T12:04:19.115Z,96.2
2017-12-30T12:05:20.553Z,95.6
2017-12-30T12:06:21.943Z,95.9
2017-12-30T12:07:23.284Z,95.6
2017-12-30T12:08:24.672Z,95.1
2017-12-30T12:09:26.062Z,95.7
2017-12-30T12:10:27.456Z,95.2
2017-12-30T12:11:28.848Z,94.7
2017-12-30T12:12:30.263Z,94.8
2017-12-30T12:13:31.673Z,95.2
2017-12-30T12:14:33.061Z,93.7
2017-12-30T12:15:34.450Z,93.8
2017-12-30T12:16:35.844Z,93.9
2017-12-30T12:17:37.232Z,94.0
2017-12-30T12:18:38.650Z,93.4
2017-12-30T12:19:40.028Z,93.5
2017-12-30T12:20:41.424Z,93.5
2017-12-30T12:21:42.812Z,93.5
2017-12-30T12:22:44.202Z,93.5
2017-12-30T12:23:45.594Z,93.0
2017-12-30T12:24:46.985Z,92.4
2017-12-30T12:25:48.376Z,92.4
2017-12-30T12:26:49.771Z,92.3
2017-12-30T12:27:51.163Z,91.8
2017-12-30T12:28:52.551Z,92.2
2017-12-30T12:29:53.942Z,92.0
2017-12-30T12:30:55.336Z,91.4
2017-12-30T12:31:56.727Z,91.4
2017-12-30T12:32:58.118Z,90.9
2017-12-30T12:33:59.511Z,91.1
2017-12-30T12:35:00.905Z,91.0
2017-12-30T12:36:02.293Z,91.6
2017-12-30T12:37:03.683Z,90.9
2017-12-30T12:38:05.076Z,91.0
2017-12-30T12:39:06.464Z,91.5
2017-12-30T12:40:07.856Z,91.5
2017-12-30T12:41:09.248Z,91.6
2017-12-30T12:42:10.642Z,91.3
2017-12-30T12:43:12.033Z,91.4
2017-12-30T12:44:13.425Z,91.1
2017-12-30T12:45:14.816Z,91.1
2017-12-30T12:46:16.209Z,91.5
2017-12-30T12:47:17.600Z,91.3
2017-12-30T12:48:18.996Z,91.3
2017-12-30T12:49:20.390Z,90.5
2017-12-30T12:50:21.782Z,89.9
2017-12-30T12:51:23.172Z,90.0
2017-12-30T12:52:24.562Z,90.0
2017-12-30T12:53:25.956Z,89.9
2017-12-30T12:54:27.347Z,90.4
2017-12-30T12:55:28.743Z,90.4
2017-12-30T12:56:30.138Z,90.3
2017-12-30T12:57:31.529Z,89.8
2017-12-30T12:58:32.923Z,89.2
2017-12-30T12:59:34.317Z,89.5
2017-12-30T13:00:35.704Z,89.4
2017-12-30T13:01:37.097Z,88.6
2017-12-30T13:02:38.500Z,88.9
2017-12-30T13:03:39.891Z,89.2
2017-12-30T13:04:41.367Z,89.5
2017-12-30T13:05:42.759Z,89.6
2017-12-30T13:06:44.151Z,88.9
2017-12-30T13:07:45.542Z,89.1
2017-12-30T13:08:46.934Z,89.3
2017-12-30T13:09:48.328Z,89.1
2017-12-30T13:10:49.721Z,89.9
2017-12-30T13:11:51.114Z,88.6
2017-12-30T13:12:52.505Z,88.4
2017-12-30T13:13:53.893Z,88.9
2017-12-30T13:14:55.285Z,89.1
2017-12-30T13:15:56.675Z,89.0
2017-12-30T13:16:58.069Z,89.4
2017-12-30T13:17:59.462Z,89.6
2017-12-30T13:19:00.851Z,89.9
2017-12-30T13:20:02.243Z,89.9
2017-12-30T13:21:03.636Z,89.6
2017-12-30T13:22:05.025Z,90.2
2017-12-30T13:23:06.416Z,89.9
2017-12-30T13:24:07.810Z,90.2
2017-12-30T13:25:09.202Z,90.6
2017-12-30T13:26:10.596Z,90.7
2017-12-30T13:27:11.987Z,89.2
2017-12-30T13:28:13.379Z,89.3
2017-12-30T13:29:14.768Z,90.1
2017-12-30T13:30:16.162Z,90.4
2017-12-30T13:31:17.553Z,89.7
2017-12-30T13:32:18.946Z,89.4